Time;durP1;ratioP1;P1;durP2;ratioP2;P2;SDS_P1;SDS_P2;PMS_P1;PMS_P2;Temp;Humidity;BMP_temperature;BMP_pressure;BME280_temperature;BME280_humidity;BME280_pressure;Samples;Min_cycle;Max_cycle;Signal;HPM_P1;HPM_P2
2023/06/29 00:00:23;;;;;;;14.50;10.35;;;;;;;25.88;48.36;101717.06;5022372;28;20272;-32
2023/06/29 00:02:50;;;;;;;14.05;9.93;;;;;;;25.88;48.48;101719.78;5016657;28;20062;-33
2023/06/29 00:05:21;;;;;;;14.73;9.75;;;;;;;25.87;48.41;101715.38;5016002;28;20054;-32
2023/06/29 00:07:48;;;;;;;13.80;9.50;;;;;;;25.86;48.25;101716.44;5020544;28;20402;-31
2023/06/29 00:10:15;;;;;;;14.80;9.35;;;;;;;25.84;48.41;101713.88;5021996;28;20800;-32
2023/06/29 00:12:42;;;;;;;14.05;9.57;;;;;;;25.85;48.36;101709.31;5019404;28;20060;-32
2023/06/29 00:15:09;;;;;;;13.55;9.50;;;;;;;25.83;48.36;101711.34;5020654;28;20204;-32
2023/06/29 00:17:36;;;;;;;13.35;9.18;;;;;;;25.81;48.27;101700.69;5019236;28;20135;-32
2023/06/29 00:20:04;;;;;;;13.55;9.10;;;;;;;25.82;48.36;101704.25;5019840;28;20426;-32
2023/06/29 00:22:32;;;;;;;14.07;9.68;;;;;;;25.81;48.41;101703.41;5019054;28;20376;-32
2023/06/29 00:25:00;;;;;;;12.73;9.13;;;;;;;25.80;48.31;101701.69;5014817;28;20441;-31
2023/06/29 00:27:26;;;;;;;14.00;9.45;;;;;;;25.80;48.39;101700.84;5025061;28;20087;-32
2023/06/29 00:29:53;;;;;;;13.15;9.43;;;;;;;25.80;48.37;101707.13;5020343;28;20049;-31
2023/06/29 00:32:20;;;;;;;13.50;9.50;;;;;;;25.78;48.39;101701.06;5021109;28;20073;-32
2023/06/29 00:34:46;;;;;;;14.05;8.93;;;;;;;25.78;48.17;101697.50;5020498;28;20057;-32
2023/06/29 00:37:13;;;;;;;13.50;9.38;;;;;;;25.77;48.30;101701.19;5021585;28;20339;-32
2023/06/29 00:39:40;;;;;;;13.75;9.85;;;;;;;25.76;48.33;101694.06;5019120;28;20053;-32
2023/06/29 00:42:06;;;;;;;12.80;8.65;;;;;;;25.75;48.40;101687.81;5019179;28;20476;-33
2023/06/29 00:44:33;;;;;;;15.55;8.82;;;;;;;25.76;48.09;101702.22;5022459;28;20049;-32
2023/06/29 00:47:00;;;;;;;12.45;8.48;;;;;;;25.75;48.08;101690.50;5017528;28;20053;-32
2023/06/29 00:49:27;;;;;;;12.10;8.57;;;;;;;25.74;48.27;101686.13;5021316;28;20112;-32
2023/06/29 00:51:54;;;;;;;11.68;8.40;;;;;;;25.74;48.22;101688.84;5018145;28;20065;-32
2023/06/29 00:54:22;;;;;;;13.88;8.55;;;;;;;25.73;48.32;101687.16;5019503;28;20203;-32
2023/06/29 00:56:48;;;;;;;14.25;9.43;;;;;;;25.73;48.23;101686.28;5019307;28;20084;-32
2023/06/29 00:59:15;;;;;;;11.93;9.10;;;;;;;25.72;48.26;101677.31;5020068;28;20342;-32
2023/06/29 01:01:43;;;;;;;12.65;8.40;;;;;;;25.72;47.87;101682.72;5017925;28;20159;-31
2023/06/29 01:04:17;;;;;;;12.52;8.73;;;;;;;25.72;48.32;101679.19;5015397;28;20108;-31
2023/06/29 01:07:17;;;;;;;13.50;9.07;;;;;;;25.70;48.22;101668.50;5018225;28;20062;-32
2023/06/29 01:09:46;;;;;;;13.18;9.55;;;;;;;25.72;48.11;101676.47;5018484;28;20508;-32
2023/06/29 01:12:15;;;;;;;12.57;8.63;;;;;;;25.71;48.00;101666.63;5016599;28;20045;-32
2023/06/29 01:14:44;;;;;;;13.20;9.05;;;;;;;25.70;48.20;101668.50;5021022;28;20052;-32
2023/06/29 01:17:13;;;;;;;11.88;8.65;;;;;;;25.71;48.23;101672.06;5016457;28;20074;-31
2023/06/29 01:19:43;;;;;;;14.27;9.13;;;;;;;25.71;48.01;101672.06;5019250;28;20350;-32
2023/06/29 01:22:17;;;;;;;13.00;8.48;;;;;;;25.71;48.06;101672.06;5016565;28;20049;-32
2023/06/29 01:24:44;;;;;;;12.88;9.13;;;;;;;25.69;48.19;101660.53;5019267;28;20054;-32
2023/06/29 01:27:14;;;;;;;13.23;8.68;;;;;;;25.70;48.06;101667.66;5018653;28;20049;-31
2023/06/29 01:29:41;;;;;;;12.82;9.00;;;;;;;25.70;48.16;101667.66;5021241;28;20575;-32
2023/06/29 01:32:09;;;;;;;12.02;8.77;;;;;;;25.68;47.98;101665.13;5017690;28;20147;-31
2023/06/29 01:34:37;;;;;;;11.35;8.38;;;;;;;25.68;47.94;101658.84;5019549;28;20045;-31
2023/06/29 01:37:09;;;;;;;13.90;8.63;;;;;;;25.68;48.10;101653.41;5018959;28;20053;-32
2023/06/29 01:39:49;;;;;;;12.93;9.15;;;;;;;25.67;48.03;101655.28;5016354;28;20507;-32
2023/06/29 01:42:18;;;;;;;12.75;8.88;;;;;;;25.67;47.96;101654.47;5016724;28;20103;-32
2023/06/29 01:44:44;;;;;;;12.63;8.77;;;;;;;25.67;48.01;101659.88;5018233;28;20413;-33
2023/06/29 01:47:13;;;;;;;11.55;8.13;;;;;;;25.66;47.90;101656.34;5019144;28;20053;-32
2023/06/29 01:49:39;;;;;;;12.48;8.52;;;;;;;25.66;48.30;101655.50;5018931;28;20095;-31
2023/06/29 01:52:07;;;;;;;12.13;8.30;;;;;;;25.65;48.23;101648.34;5015201;28;21162;-32
2023/06/29 01:54:34;;;;;;;13.35;8.90;;;;;;;25.66;48.06;101647.34;5016721;28;20136;-31
2023/06/29 01:57:01;;;;;;;13.20;8.93;;;;;;;25.65;48.07;101643.78;5018629;28;20057;-32
2023/06/29 01:59:27;;;;;;;10.82;8.05;;;;;;;25.64;47.98;101636.66;5020908;28;20049;-32
2023/06/29 02:01:54;;;;;;;11.63;8.45;;;;;;;25.64;47.96;101639.38;5016877;28;20088;-31
2023/06/29 02:04:20;;;;;;;12.93;8.57;;;;;;;25.64;47.80;101643.97;5022344;28;20056;-31
2023/06/29 02:06:47;;;;;;;12.40;7.75;;;;;;;25.63;47.79;101634.97;5023587;28;20073;-33
2023/06/29 02:09:14;;;;;;;12.35;8.93;;;;;;;25.63;48.03;101634.13;5021139;28;20420;-32
2023/06/29 02:11:40;;;;;;;13.23;9.02;;;;;;;25.64;47.99;101633.09;5019293;28;20050;-32
2023/06/29 02:14:07;;;;;;;13.85;9.27;;;;;;;25.63;48.02;101626.00;5019765;28;20054;-32
2023/06/29 02:16:34;;;;;;;13.95;9.88;;;;;;;25.62;48.14;101627.03;5021193;28;20077;-32
2023/06/29 02:19:00;;;;;;;12.07;8.70;;;;;;;25.63;47.94;101626.00;5021209;28;20056;-32
2023/06/29 02:21:28;;;;;;;12.07;8.45;;;;;;;25.61;47.86;101620.75;5013949;28;20504;-31
2023/06/29 02:23:54;;;;;;;11.57;8.23;;;;;;;25.62;47.82;101627.03;5017065;28;20111;-32
2023/06/29 02:26:23;;;;;;;11.05;7.82;;;;;;;25.60;47.77;101619.88;5013689;28;20052;-33
2023/06/29 02:28:51;;;;;;;12.88;9.35;;;;;;;25.61;47.71;101618.03;5017451;28;20073;-32
2023/06/29 02:31:18;;;;;;;12.38;8.88;;;;;;;25.60;47.64;101617.16;5015493;28;20597;-32
2023/06/29 02:33:45;;;;;;;12.88;8.10;;;;;;;25.60;47.80;101611.75;5016910;28;20136;-33
2023/06/29 02:36:11;;;;;;;11.50;8.30;;;;;;;25.60;48.02;101610.91;5016102;28;20109;-31
2023/06/29 02:38:38;;;;;;;12.70;8.95;;;;;;;25.60;47.96;101611.75;5016793;28;20174;-32
2023/06/29 02:41:05;;;;;;;10.95;7.88;;;;;;;25.59;47.94;101607.34;5014583;28;20054;-32
2023/06/29 02:43:33;;;;;;;11.10;8.40;;;;;;;25.59;47.65;101603.78;5020115;28;20118;-33
2023/06/29 02:46:00;;;;;;;11.38;8.20;;;;;;;25.59;48.12;101601.91;5018340;28;20084;-32
2023/06/29 02:48:26;;;;;;;11.93;8.85;;;;;;;25.59;47.67;101601.06;5017709;28;20053;-31
2023/06/29 02:50:53;;;;;;;13.20;8.63;;;;;;;25.59;47.92;101607.34;5016057;28;20045;-31
2023/06/29 02:53:20;;;;;;;11.40;8.57;;;;;;;25.57;48.06;101601.28;5018146;28;20763;-32
2023/06/29 02:55:46;;;;;;;12.73;8.77;;;;;;;25.57;47.88;101606.69;5013220;28;20137;-32
2023/06/29 02:58:13;;;;;;;12.55;8.73;;;;;;;25.58;47.77;101599.41;5017368;28;20084;-33
2023/06/29 03:00:39;;;;;;;14.15;9.45;;;;;;;25.57;47.74;101598.56;5016472;28;20107;-32
2023/06/29 03:03:06;;;;;;;11.15;8.52;;;;;;;25.56;48.01;101599.56;5016642;28;20077;-32
2023/06/29 03:05:33;;;;;;;11.82;8.82;;;;;;;25.56;47.83;101596.84;5016081;28;20081;-31
2023/06/29 03:07:59;;;;;;;13.05;8.88;;;;;;;25.57;47.93;101589.56;5017102;28;20111;-32
2023/06/29 03:10:26;;;;;;;11.55;8.48;;;;;;;25.56;47.99;101593.28;5014893;28;20049;-32
2023/06/29 03:12:53;;;;;;;12.73;8.45;;;;;;;25.55;47.89;101592.47;5014747;28;20430;-32
2023/06/29 03:15:19;;;;;;;10.95;8.00;;;;;;;25.55;47.69;101591.63;5017887;28;20131;-32
2023/06/29 03:17:46;;;;;;;14.27;9.02;;;;;;;25.56;47.58;101587.88;5017850;28;20440;-32
2023/06/29 03:20:15;;;;;;;12.30;8.55;;;;;;;25.55;47.78;101583.47;5015456;28;20342;-32
2023/06/29 03:22:42;;;;;;;11.07;8.20;;;;;;;25.54;47.49;101582.63;5015905;28;20080;-32
2023/06/29 03:25:12;;;;;;;12.85;9.23;;;;;;;25.53;47.92;101578.25;5018565;28;20062;-32
2023/06/29 03:27:39;;;;;;;13.32;8.63;;;;;;;25.53;47.66;101580.13;5016587;28;20096;-32
2023/06/29 03:30:06;;;;;;;12.10;8.77;;;;;;;25.53;47.78;101574.69;5019247;28;20081;-32
2023/06/29 03:32:33;;;;;;;12.93;8.55;;;;;;;25.52;48.06;101571.09;5015321;28;20132;-31
2023/06/29 03:34:59;;;;;;;12.32;8.65;;;;;;;25.52;48.06;101565.69;5018784;28;20145;-33
2023/06/29 03:37:26;;;;;;;13.18;8.70;;;;;;;25.51;48.00;101566.72;5017635;28;20139;-32
2023/06/29 03:39:52;;;;;;;12.52;8.85;;;;;;;25.52;47.84;101567.56;5017466;28;20108;-32
2023/06/29 03:42:19;;;;;;;14.05;9.30;;;;;;;25.50;47.68;101562.31;5017171;28;20046;-32
2023/06/29 03:44:46;;;;;;;12.98;9.23;;;;;;;25.50;47.92;101565.03;5019888;28;20132;-32
2023/06/29 03:47:13;;;;;;;11.88;9.05;;;;;;;25.51;47.62;101563.16;5018217;28;20053;-32
2023/06/29 03:49:39;;;;;;;12.60;9.05;;;;;;;25.50;47.85;101564.19;5015639;28;20077;-32
2023/06/29 03:52:06;;;;;;;12.60;8.48;;;;;;;25.50;47.77;101565.03;5019728;28;20337;-30
2023/06/29 03:54:33;;;;;;;12.35;8.52;;;;;;;25.50;47.88;101566.91;5014320;28;20164;-30
2023/06/29 03:56:59;;;;;;;12.38;8.73;;;;;;;25.50;48.04;101564.19;5017953;28;20057;-33
2023/06/29 03:59:26;;;;;;;12.02;8.57;;;;;;;25.48;47.88;101567.06;5016807;28;20052;-33
2023/06/29 04:01:53;;;;;;;12.30;8.70;;;;;;;25.48;47.89;101569.78;5014490;28;20067;-33
2023/06/29 04:04:19;;;;;;;11.18;8.38;;;;;;;25.48;47.74;101555.38;5015811;28;20049;-33
2023/06/29 04:06:46;;;;;;;13.02;8.85;;;;;;;25.46;47.75;101561.00;5016811;28;20254;-34
2023/06/29 04:09:13;;;;;;;11.80;8.13;;;;;;;25.47;47.85;101556.41;5017529;28;20052;-32
2023/06/29 04:11:40;;;;;;;11.25;8.73;;;;;;;25.48;47.68;101552.66;5016339;28;20045;-31
2023/06/29 04:14:06;;;;;;;11.20;8.25;;;;;;;25.46;47.97;101544.72;5021171;28;20113;-33
2023/06/29 04:16:33;;;;;;;11.68;8.15;;;;;;;25.46;47.56;101544.72;5017595;28;20144;-33
2023/06/29 04:19:00;;;;;;;13.02;8.05;;;;;;;25.46;48.00;101539.28;5015806;28;20411;-34
2023/06/29 04:21:27;;;;;;;11.70;7.88;;;;;;;25.46;47.97;101542.00;5016929;28;20100;-33
2023/06/29 04:23:53;;;;;;;13.63;8.95;;;;;;;25.45;47.81;101534.91;5017811;28;20061;-33
2023/06/29 04:26:23;;;;;;;11.20;7.93;;;;;;;25.46;48.05;101542.00;5020177;28;20134;-32
2023/06/29 04:28:50;;;;;;;12.02;7.90;;;;;;;25.46;48.12;101536.56;5016566;28;20089;-33
2023/06/29 04:31:17;;;;;;;12.38;8.55;;;;;;;25.46;48.03;101542.00;5023815;28;20045;-32
2023/06/29 04:33:44;;;;;;;12.90;9.23;;;;;;;25.47;47.75;101535.53;5017932;28;20042;-33
2023/06/29 04:36:13;;;;;;;12.73;8.73;;;;;;;25.46;47.86;101539.28;5016926;28;20191;-33
2023/06/29 04:38:39;;;;;;;12.93;8.48;;;;;;;25.46;47.87;101535.75;5018518;28;20050;-33
2023/06/29 04:41:07;;;;;;;11.02;7.88;;;;;;;25.46;47.99;101536.56;5018232;28;20046;-33
2023/06/29 04:43:36;;;;;;;10.65;8.27;;;;;;;25.48;47.90;101539.09;5019997;28;20042;-32
2023/06/29 04:46:03;;;;;;;12.57;8.38;;;;;;;25.46;47.71;101535.75;5019996;28;20061;-33
2023/06/29 04:48:37;;;;;;;12.23;8.30;;;;;;;25.46;47.86;101542.00;5019652;28;20045;-33
2023/06/29 04:51:05;;;;;;;12.38;8.40;;;;;;;25.47;47.81;101543.69;5018012;28;20049;-33
2023/06/29 04:53:35;;;;;;;12.82;9.02;;;;;;;25.45;47.92;101537.63;5020351;28;20046;-33
2023/06/29 04:56:02;;;;;;;13.05;8.98;;;;;;;25.45;48.14;101536.75;5018424;28;20483;-33
2023/06/29 04:58:29;;;;;;;12.00;8.38;;;;;;;25.44;47.88;101538.63;5017377;28;20509;-33
2023/06/29 05:00:56;;;;;;;12.30;8.93;;;;;;;25.44;47.87;101535.91;5020589;28;20153;-32
2023/06/29 05:03:24;;;;;;;11.57;8.18;;;;;;;25.44;47.78;101538.63;5015621;28;20042;-32
2023/06/29 05:05:51;;;;;;;12.85;8.07;;;;;;;25.44;47.91;101537.78;5014948;28;20678;-32
2023/06/29 05:08:18;;;;;;;12.68;8.57;;;;;;;25.43;47.76;101536.94;5014307;28;20054;-32
2023/06/29 05:10:45;;;;;;;11.40;8.60;;;;;;;25.43;47.80;101531.50;5019213;28;20050;-32
2023/06/29 05:13:12;;;;;;;12.70;8.38;;;;;;;25.43;47.70;101536.09;5013858;28;20045;-32
2023/06/29 05:15:38;;;;;;;13.13;8.70;;;;;;;25.43;47.83;101528.81;5017575;28;20117;-31
2023/06/29 05:18:05;;;;;;;12.35;8.77;;;;;;;25.43;47.99;101527.97;5018680;28;20057;-32
2023/06/29 05:20:32;;;;;;;12.00;7.93;;;;;;;25.43;47.95;101530.69;5019005;28;20511;-32
2023/06/29 05:23:00;;;;;;;12.80;8.82;;;;;;;25.42;47.75;101520.84;5018047;28;20115;-31
2023/06/29 05:25:26;;;;;;;12.05;8.23;;;;;;;25.42;47.83;101518.97;5025149;28;20041;-31
2023/06/29 05:27:53;;;;;;;12.75;8.52;;;;;;;25.42;47.92;101518.13;5019785;28;20516;-32
2023/06/29 05:30:20;;;;;;;12.38;8.23;;;;;;;25.42;48.02;101529.00;5020647;28;20053;-32
2023/06/29 05:32:46;;;;;;;12.40;8.27;;;;;;;25.40;47.77;101512.88;5019099;28;20042;-31
2023/06/29 05:35:13;;;;;;;12.00;8.20;;;;;;;25.41;48.01;101517.31;5019623;28;20046;-32
2023/06/29 05:37:40;;;;;;;13.73;8.93;;;;;;;25.41;48.32;101525.44;5019672;28;20349;-31
2023/06/29 05:40:08;;;;;;;14.10;8.95;;;;;;;25.41;48.05;101524.56;5023511;28;20103;-32
2023/06/29 05:42:35;;;;;;;14.05;8.57;;;;;;;25.42;48.21;101529.84;5018605;28;20091;-31
2023/06/29 05:45:02;;;;;;;13.75;9.07;;;;;;;25.42;47.97;101527.13;5020155;28;20388;-31
2023/06/29 05:47:29;;;;;;;15.95;9.48;;;;;;;25.41;48.00;101520.00;5017248;28;20335;-32
2023/06/29 05:49:56;;;;;;;12.77;8.60;;;;;;;25.41;47.82;101525.44;5021208;28;20096;-32
2023/06/29 05:52:22;;;;;;;11.43;8.80;;;;;;;25.42;48.00;101523.56;5022046;28;20095;-31
2023/06/29 05:54:49;;;;;;;13.82;9.43;;;;;;;25.41;48.17;101522.72;5023054;28;20139;-31
2023/06/29 05:57:16;;;;;;;12.80;8.68;;;;;;;25.41;48.43;101520.00;5022341;28;20057;-32
2023/06/29 05:59:42;;;;;;;12.95;8.77;;;;;;;25.41;48.24;101520.00;5020388;28;20053;-31
2023/06/29 06:02:09;;;;;;;13.32;9.55;;;;;;;25.41;47.83;101525.44;5018127;28;20128;-32
2023/06/29 06:04:36;;;;;;;13.25;9.07;;;;;;;25.41;48.17;101524.56;5017181;28;20045;-31
2023/06/29 06:07:03;;;;;;;14.13;9.43;;;;;;;25.40;48.15;101518.31;5023919;28;20119;-31
2023/06/29 06:09:30;;;;;;;15.10;9.30;;;;;;;25.41;48.12;101525.44;5022020;28;20049;-31
2023/06/29 06:11:56;;;;;;;14.50;9.68;;;;;;;25.42;48.49;101523.56;5022372;28;20191;-31
2023/06/29 06:14:23;;;;;;;12.90;8.85;;;;;;;25.42;48.03;101531.72;5020560;28;20053;-32
2023/06/29 06:16:49;;;;;;;15.05;10.07;;;;;;;25.42;48.31;101527.13;5022567;28;20053;-34
2023/06/29 06:19:16;;;;;;;14.27;9.75;;;;;;;25.42;48.42;101535.25;5023503;28;20393;-31
2023/06/29 06:21:43;;;;;;;13.45;9.57;;;;;;;25.43;48.12;101527.97;5024846;28;20143;-32
2023/06/29 06:24:10;;;;;;;13.52;9.30;;;;;;;25.42;48.32;101521.69;5017145;28;20053;-31
2023/06/29 06:26:36;;;;;;;15.77;10.10;;;;;;;25.42;48.29;101526.28;5015179;28;20771;-33
2023/06/29 06:29:03;;;;;;;14.57;10.02;;;;;;;25.42;48.13;101524.41;5022860;28;20426;-33
2023/06/29 06:31:29;;;;;;;16.67;10.23;;;;;;;25.41;48.33;101525.44;5024152;28;20135;-31
2023/06/29 06:34:00;;;;;;;14.80;10.48;;;;;;;25.43;48.02;101533.38;5019815;28;20045;-32
2023/06/29 06:36:30;;;;;;;14.20;9.95;;;;;;;25.42;48.05;101524.41;5015561;28;20433;-33
2023/06/29 06:38:57;;;;;;;15.13;10.13;;;;;;;25.43;48.20;101527.97;5010347;28;20116;-33
2023/06/29 06:41:24;;;;;;;14.85;10.48;;;;;;;25.43;48.34;101525.25;5021380;28;20054;-33
2023/06/29 06:43:51;;;;;;;18.92;10.98;;;;;;;25.43;48.23;101531.50;5020109;28;20045;-33
2023/06/29 06:46:18;;;;;;;15.25;10.02;;;;;;;25.43;48.01;101528.81;5015888;28;20084;-32
2023/06/29 06:48:44;;;;;;;16.00;10.23;;;;;;;25.44;48.18;101521.50;5018576;28;20084;-33
2023/06/29 06:51:11;;;;;;;17.80;11.02;;;;;;;25.43;48.33;101517.94;5015203;28;20557;-33
2023/06/29 06:53:39;;;;;;;13.73;10.13;;;;;;;25.43;48.33;101527.97;5022028;28;20056;-33
2023/06/29 06:56:05;;;;;;;17.13;11.43;;;;;;;25.43;47.92;101519.81;5019045;28;20148;-32
2023/06/29 06:58:32;;;;;;;16.45;11.30;;;;;;;25.43;48.03;101520.66;5018193;28;20049;-32
2023/06/29 07:00:59;;;;;;;16.17;11.38;;;;;;;25.41;48.36;101517.31;5020558;28;20056;-33
2023/06/29 07:03:26;;;;;;;15.20;10.13;;;;;;;25.42;48.21;101524.41;5018828;28;20045;-33
2023/06/29 07:05:53;;;;;;;16.40;11.48;;;;;;;25.43;48.60;101525.25;5018320;28;20442;-33
2023/06/29 07:08:21;;;;;;;16.80;11.30;;;;;;;25.44;48.24;101513.34;5017281;28;20072;-31
2023/06/29 07:10:47;;;;;;;15.90;10.93;;;;;;;25.45;48.48;101520.47;5015493;28;20162;-31
2023/06/29 07:13:14;;;;;;;16.05;11.20;;;;;;;25.46;48.38;101516.75;5013095;28;20049;-31
2023/06/29 07:15:41;;;;;;;18.17;12.20;;;;;;;25.47;48.09;101519.25;5020010;28;20041;-33
2023/06/29 07:18:07;;;;;;;15.52;10.90;;;;;;;25.50;48.68;101526.19;5013789;28;20136;-32
2023/06/29 07:20:34;;;;;;;20.42;11.52;;;;;;;25.51;48.40;101517.00;5017033;28;20083;-32
2023/06/29 07:23:03;;;;;;;15.93;10.70;;;;;;;25.52;48.35;101518.69;5017911;28;20381;-31
2023/06/29 07:25:33;;;;;;;16.92;11.13;;;;;;;25.54;48.34;101514.78;5018089;28;20077;-32
2023/06/29 07:28:00;;;;;;;17.23;12.38;;;;;;;25.55;48.34;101513.72;5012949;28;20487;-32
2023/06/29 07:30:26;;;;;;;17.33;10.82;;;;;;;25.58;48.25;101520.66;5017383;28;20104;-32
2023/06/29 07:32:53;;;;;;;17.80;11.07;;;;;;;25.59;47.88;101520.47;5018967;28;20059;-32
2023/06/29 07:35:20;;;;;;;16.38;10.90;;;;;;;25.59;48.32;101519.63;5015747;28;20551;-31
2023/06/29 07:37:46;;;;;;;16.85;11.82;;;;;;;25.60;48.09;101518.59;5017361;28;20451;-30
2023/06/29 07:40:13;;;;;;;48.03;18.52;;;;;;;25.60;48.26;101522.16;5018255;28;20120;-31
2023/06/29 07:42:39;;;;;;;30.15;16.60;;;;;;;25.62;48.48;101521.13;5016362;28;20392;-31
2023/06/29 07:45:07;;;;;;;57.75;23.00;;;;;;;25.60;49.28;101527.56;5010524;28;20183;-33
2023/06/29 07:47:33;;;;;;;43.42;22.00;;;;;;;25.58;49.87;101513.38;5003364;28;20053;-31
2023/06/29 07:50:00;;;;;;;43.78;22.45;;;;;;;25.58;50.24;101521.50;5008984;28;20164;-32
2023/06/29 07:52:27;;;;;;;45.03;22.50;;;;;;;25.57;50.80;101519.84;5007458;28;20137;-31
2023/06/29 07:54:54;;;;;;;39.03;22.83;;;;;;;25.57;50.80;101522.53;5015400;28;20441;-31
2023/06/29 07:57:20;;;;;;;40.55;24.02;;;;;;;25.55;51.21;101519.16;5015117;28;20147;-31
2023/06/29 07:59:50;;;;;;;35.30;21.92;;;;;;;25.54;51.03;101512.06;5006419;28;20052;-31
2023/06/29 08:02:16;;;;;;;37.53;21.65;;;;;;;25.55;51.04;101513.72;5018009;28;20056;-31
2023/06/29 08:04:43;;;;;;;37.88;21.67;;;;;;;25.56;51.45;101503.72;5016465;28;20069;-30
2023/06/29 08:07:13;;;;;;;34.38;21.27;;;;;;;25.57;51.50;101510.84;5014132;28;20081;-32
2023/06/29 08:09:39;;;;;;;33.88;20.73;;;;;;;25.57;51.61;101510.84;5015350;28;20441;-31
2023/06/29 08:12:06;;;;;;;31.65;21.80;;;;;;;25.57;51.14;101505.41;5014395;28;20141;-34
2023/06/29 08:14:35;;;;;;;36.00;21.30;;;;;;;25.59;51.69;101508.78;5015622;28;20056;-33
2023/06/29 08:17:03;;;;;;;33.80;20.95;;;;;;;25.60;51.82;101513.16;5012101;28;20107;-34
2023/06/29 08:19:29;;;;;;;35.78;22.00;;;;;;;25.59;52.02;101506.06;4981063;28;20454;-33
2023/06/29 08:21:56;;;;;;;34.38;21.35;;;;;;;25.60;51.75;101515.88;5021981;28;20083;-32
2023/06/29 08:24:23;;;;;;;35.63;21.90;;;;;;;25.58;52.28;101513.38;5010998;28;20072;-33
2023/06/29 08:26:50;;;;;;;55.67;36.25;;;;;;;25.56;52.31;101515.41;5011528;28;20133;-33
2023/06/29 08:29:16;;;;;;;50.55;31.55;;;;;;;25.55;51.98;101505.59;5042878;28;20396;-32
2023/06/29 08:31:43;;;;;;;38.63;24.77;;;;;;;25.53;52.40;101502.22;5015558;28;20523;-32
2023/06/29 08:34:10;;;;;;;39.75;26.55;;;;;;;25.51;52.26;101496.13;5011909;28;20049;-32
2023/06/29 08:36:37;;;;;;;40.30;24.20;;;;;;;25.51;52.24;101501.56;5016315;28;20085;-32
2023/06/29 08:39:04;;;;;;;39.03;24.90;;;;;;;25.52;52.42;101496.97;4980679;28;20484;-32
2023/06/29 08:41:31;;;;;;;40.15;25.15;;;;;;;25.53;52.39;101494.09;5033902;28;20054;-33
2023/06/29 08:43:57;;;;;;;37.47;24.13;;;;;;;25.54;52.47;101489.50;5020264;28;20455;-36
2023/06/29 08:46:27;;;;;;;36.40;23.25;;;;;;;25.55;52.13;101488.47;5051166;28;20446;-32
2023/06/29 08:48:55;;;;;;;37.53;22.27;;;;;;;25.56;52.04;101498.28;5021312;28;20080;-32
2023/06/29 08:51:22;;;;;;;34.50;23.02;;;;;;;25.58;51.98;101497.06;5016253;28;20520;-32
2023/06/29 08:53:49;;;;;;;37.35;24.75;;;;;;;25.62;52.02;101494.81;5012094;28;20056;-32
2023/06/29 08:56:16;;;;;;;43.25;25.05;;;;;;;25.64;52.20;101495.47;5021697;28;20143;-32
2023/06/29 08:58:43;;;;;;;36.03;23.20;;;;;;;25.64;52.15;101489.19;4985081;28;20075;-33
2023/06/29 09:01:11;;;;;;;38.60;23.50;;;;;;;25.65;52.14;101491.75;5040427;28;20114;-33
2023/06/29 09:03:38;;;;;;;36.40;24.70;;;;;;;25.68;52.14;101493.22;5015576;28;20124;-32
2023/06/29 09:06:05;;;;;;;36.08;23.13;;;;;;;25.71;51.95;101493.69;5012251;28;20164;-34
2023/06/29 09:08:36;;;;;;;32.80;22.85;;;;;;;25.73;51.76;101485.34;5029084;28;20080;-32
2023/06/29 09:11:03;;;;;;;35.17;22.65;;;;;;;25.74;51.70;101489.75;5026367;28;20057;-33
2023/06/29 09:13:33;;;;;;;34.08;23.27;;;;;;;25.74;51.91;101487.88;5020528;28;20049;-32
2023/06/29 09:16:00;;;;;;;33.40;21.35;;;;;;;25.75;51.94;101480.56;5020908;28;20053;-32
2023/06/29 09:18:28;;;;;;;33.28;21.10;;;;;;;25.76;51.61;101476.81;5010338;28;20054;-32
2023/06/29 09:20:56;;;;;;;38.30;22.70;;;;;;;25.78;51.45;101482.97;4996700;28;20057;-35
2023/06/29 09:23:28;;;;;;;33.58;21.20;;;;;;;25.78;51.72;101483.78;5015976;28;21000;-34
2023/06/29 09:25:56;;;;;;;34.30;20.87;;;;;;;25.78;51.82;101491.09;5013531;28;20050;-33
2023/06/29 09:28:24;;;;;;;34.45;21.70;;;;;;;25.77;52.00;101487.56;5013259;28;20049;-33
2023/06/29 09:30:51;;;;;;;36.47;20.92;;;;;;;25.77;51.95;101490.25;5019766;28;20093;-32
2023/06/29 09:33:19;;;;;;;30.85;20.48;;;;;;;25.77;52.00;101497.50;5017839;28;20049;-32
2023/06/29 09:35:48;;;;;;;31.40;19.73;;;;;;;25.76;52.11;101485.81;5012072;28;20381;-32
2023/06/29 09:38:18;;;;;;;28.95;19.42;;;;;;;25.77;51.85;101484.84;5015440;28;20084;-32
2023/06/29 09:40:52;;;;;;;32.80;20.30;;;;;;;25.77;51.85;101489.38;5000315;28;20059;-33
2023/06/29 09:43:21;;;;;;;28.40;19.75;;;;;;;25.78;52.04;101500.09;5018038;28;20042;-32
2023/06/29 09:45:48;;;;;;;33.25;18.90;;;;;;;25.80;52.13;101502.59;5018592;28;20053;-32
2023/06/29 09:48:15;;;;;;;30.20;20.25;;;;;;;25.78;52.03;101491.94;5016626;28;20412;-33
2023/06/29 09:50:49;;;;;;;31.90;20.00;;;;;;;25.78;52.51;101485.66;5013728;28;20188;-32
2023/06/29 09:53:17;;;;;;;30.77;19.92;;;;;;;25.78;52.25;101494.66;5013462;28;20053;-32
2023/06/29 09:55:47;;;;;;;48.40;29.98;;;;;;;25.77;52.15;101484.84;5019132;28;20093;-32
2023/06/29 09:58:16;;;;;;;46.58;27.58;;;;;;;25.80;52.29;101502.59;5014871;28;21647;-32
2023/06/29 10:00:43;;;;;;;41.97;25.17;;;;;;;25.83;52.22;101496.78;4987743;28;20089;-33
2023/06/29 10:03:11;;;;;;;37.03;23.20;;;;;;;25.83;52.22;101491.38;5018987;28;20046;-32
2023/06/29 10:05:37;;;;;;;36.15;24.17;;;;;;;25.83;52.20;101492.22;5013588;28;20142;-32
2023/06/29 10:08:08;;;;;;;41.30;26.77;;;;;;;25.86;52.00;101492.88;5023822;28;20057;-34
2023/06/29 10:10:35;;;;;;;41.25;25.27;;;;;;;25.88;52.16;101491.63;5032198;28;20080;-35
2023/06/29 10:13:04;;;;;;;39.80;24.00;;;;;;;25.93;52.03;101496.50;5022521;28;20503;-32
2023/06/29 10:15:35;;;;;;;35.30;22.98;;;;;;;25.96;51.67;101491.53;5027293;28;20107;-32
2023/06/29 10:18:08;;;;;;;36.78;23.40;;;;;;;25.97;51.39;101495.94;5027144;28;20483;-33
2023/06/29 10:20:36;;;;;;;;;;;;;;;25.97;51.81;101485.06;5037256;28;20099;-34
2023/06/29 10:23:06;;;;;;;41.53;26.63;;;;;;;26.03;51.55;101473.44;5024009;28;19929;-33
2023/06/29 10:25:39;;;;;;;35.15;23.73;;;;;;;26.05;51.68;101482.25;5017576;28;20107;-32
2023/06/29 10:28:07;;;;;;;34.80;23.02;;;;;;;26.05;51.27;101487.69;5024204;28;20049;-33
2023/06/29 10:30:47;;;;;;;41.83;25.50;;;;;;;26.05;51.40;101493.13;5029094;28;20386;-33
2023/06/29 10:33:20;;;;;;;30.80;22.27;;;;;;;26.06;51.25;101488.50;5020794;28;20057;-33
2023/06/29 10:35:57;;;;;;;33.97;22.95;;;;;;;26.06;51.02;101485.81;5012321;28;20118;-32
2023/06/29 10:38:32;;;;;;;36.80;22.15;;;;;;;26.04;51.02;101485.13;4987974;28;20070;-33
2023/06/29 10:40:59;;;;;;;36.60;20.38;;;;;;;26.04;50.79;101483.25;5023979;28;20057;-32
2023/06/29 10:43:27;;;;;;;32.22;22.33;;;;;;;26.06;50.56;101483.91;5007784;28;20052;-33
2023/06/29 10:45:54;;;;;;;32.10;19.85;;;;;;;26.08;50.77;101481.00;5009865;28;20069;-33
2023/06/29 10:48:20;;;;;;;34.80;21.25;;;;;;;26.10;50.50;101473.50;5007921;28;20108;-33
2023/06/29 10:51:08;;;;;;;36.28;22.15;;;;;;;26.14;50.55;101469.38;5006319;28;20346;-33
2023/06/29 10:53:35;;;;;;;31.05;21.08;;;;;;;26.18;50.16;101467.13;5008832;28;20045;-33
2023/06/29 10:56:02;;;;;;;28.90;19.88;;;;;;;26.23;50.38;101467.38;5005141;28;20144;-32
2023/06/29 10:58:37;;;;;;;29.42;20.08;;;;;;;26.27;50.11;101458.63;4971312;28;20154;-32
2023/06/29 11:01:04;;;;;;;32.05;18.25;;;;;;;26.32;49.93;101453.44;5007328;28;20053;-31
2023/06/29 11:03:32;;;;;;;42.35;18.20;;;;;;;26.34;49.62;101451.41;5003152;28;20402;-32
2023/06/29 11:06:01;;;;;;;29.27;20.55;;;;;;;26.34;49.83;101454.13;5002581;28;20422;-31
2023/06/29 11:08:30;;;;;;;28.00;18.20;;;;;;;26.34;49.48;101453.28;5005498;28;20552;-32
2023/06/29 11:11:12;;;;;;;26.30;17.67;;;;;;;26.31;49.86;101456.38;5004738;28;20420;-32
2023/06/29 11:13:39;;;;;;;30.38;16.85;;;;;;;26.31;49.88;101457.22;4996038;28;20062;-31
2023/06/29 11:16:05;;;;;;;35.85;20.75;;;;;;;26.30;49.98;101452.00;4999377;28;20049;-31